createdAt,value
2023-03-04T00:22:36.646Z,3.40
2023-03-04T00:27:39.932Z,3.20
2023-03-04T00:32:42.540Z,3.30
2023-03-04T00:37:46.564Z,3.20
2023-03-04T00:42:49.158Z,3.20
2023-03-04T00:47:52.086Z,3.20
2023-03-04T00:52:56.056Z,3.30
2023-03-04T00:57:58.559Z,3.50
2023-03-04T01:03:01.224Z,3.50
2023-03-04T01:08:05.491Z,3.40
2023-03-04T01:13:08.240Z,3.30
2023-03-04T01:18:10.914Z,3.20
2023-03-04T01:23:14.862Z,3.30
2023-03-04T01:28:17.747Z,3.30
2023-03-04T01:33:20.355Z,3.40
2023-03-04T01:38:24.873Z,3.10
2023-03-04T01:43:30.641Z,2.90
2023-03-04T01:48:37.425Z,2.80
2023-03-04T01:53:42.621Z,2.70
2023-03-04T01:58:45.369Z,2.90
2023-03-04T02:03:48.117Z,2.90
2023-03-04T02:08:52.092Z,2.90
2023-03-04T02:13:54.595Z,3.00
2023-03-04T02:18:57.382Z,3.00
2023-03-04T02:24:14.302Z,3.00
2023-03-04T02:29:19.382Z,2.80
2023-03-04T02:34:25.579Z,3.00
2023-03-04T02:39:34.769Z,3.10
2023-03-04T02:44:41.689Z,3.30
2023-03-04T02:49:45.146Z,3.20
2023-03-04T02:54:47.827Z,3.20
2023-03-04T02:59:53.965Z,3.10
2023-03-04T03:04:59.962Z,3.20
2023-03-04T03:10:03.041Z,3.20
2023-03-04T03:15:09.303Z,3.30
2023-03-04T03:20:14.050Z,3.40
2023-03-04T03:25:17.702Z,3.30
2023-03-04T03:30:22.977Z,3.30
2023-03-04T03:35:25.705Z,3.30
2023-03-04T03:40:28.511Z,3.20
2023-03-04T03:45:32.769Z,3.40
2023-03-04T03:50:35.435Z,3.30
2023-03-04T03:55:38.061Z,3.10
2023-03-04T04:00:42.244Z,3.10
2023-03-04T04:05:44.855Z,3.20
2023-03-04T04:10:47.514Z,3.30
2023-03-04T04:15:51.973Z,3.30
2023-03-04T04:20:55.635Z,3.20
2023-03-04T04:25:58.737Z,3.20
2023-03-04T04:31:03.194Z,3.20
2023-03-04T04:36:06.686Z,3.40
2023-03-04T04:41:20.840Z,3.40
2023-03-04T04:46:24.810Z,3.20
2023-03-04T04:51:27.679Z,3.40
2023-03-04T04:56:30.302Z,3.40
2023-03-04T05:01:34.420Z,3.40
2023-03-04T05:06:37.198Z,3.40
2023-03-04T05:11:39.639Z,3.40
2023-03-04T05:16:43.718Z,3.50
2023-03-04T05:21:46.270Z,3.40
2023-03-04T05:26:48.845Z,3.50
2023-03-04T05:31:53.036Z,3.60
2023-03-04T05:36:55.578Z,3.50
2023-03-04T05:41:58.108Z,3.50
2023-03-04T05:47:02.032Z,3.60
2023-03-04T05:52:04.554Z,3.70
2023-03-04T05:57:07.112Z,3.60
2023-03-04T06:02:11.475Z,3.60
2023-03-04T06:07:14.324Z,3.70
2023-03-04T06:12:16.985Z,3.70
2023-03-04T06:17:21.342Z,3.70
2023-03-04T06:22:23.982Z,3.70
2023-03-04T06:27:27.135Z,3.80
2023-03-04T06:32:31.258Z,3.80
2023-03-04T06:37:33.776Z,3.90
2023-03-04T06:42:36.950Z,3.90
2023-03-04T06:47:40.989Z,4.10
2023-03-04T06:52:43.518Z,4.20
2023-03-04T06:57:48.450Z,4.30
2023-03-04T07:02:55.046Z,4.40
2023-03-04T07:07:58.089Z,4.40
2023-03-04T07:13:01.739Z,4.30
2023-03-04T07:18:05.935Z,4.30
2023-03-04T07:23:08.658Z,4.30
2023-03-04T07:28:11.265Z,4.40
2023-03-04T07:33:15.292Z,4.40
2023-03-04T07:38:17.809Z,4.30
2023-03-04T07:43:20.405Z,4.30
2023-03-04T07:48:24.315Z,4.50
2023-03-04T07:53:26.786Z,4.70
2023-03-04T07:58:29.472Z,4.70
2023-03-04T08:03:33.312Z,4.80
2023-03-04T08:08:36.543Z,4.90
2023-03-04T08:13:39.641Z,5.00
2023-03-04T08:18:48.680Z,4.90
2023-03-04T08:23:59.669Z,5.10
2023-03-04T08:29:06.093Z,5.10
2023-03-04T08:34:17.373Z,5.10
2023-03-04T08:39:20.696Z,5.30
2023-03-04T08:44:25.124Z,5.50
2023-03-04T08:49:30.983Z,5.50
2023-03-04T08:54:35.939Z,5.50
2023-03-04T09:04:57.478Z,5.30
2023-03-04T09:10:00.064Z,5.20
2023-03-04T09:15:11.072Z,4.80
2023-03-04T09:20:16.017Z,4.40
2023-03-04T09:25:28.015Z,4.10
2023-03-04T09:30:30.996Z,4.00
2023-03-04T09:35:34.991Z,4.10
2023-03-04T09:40:41.939Z,4.50
2023-03-04T09:45:51.355Z,4.70
2023-03-04T09:51:12.328Z,4.70
2023-03-04T09:56:16.058Z,4.20
2023-03-04T10:01:26.105Z,4.00
2023-03-04T10:06:32.464Z,3.90
2023-03-04T10:11:41.675Z,4.00
2023-03-04T10:16:52.066Z,4.10
2023-03-04T10:21:56.153Z,4.10
2023-03-04T10:27:36.966Z,3.80
2023-03-04T10:32:47.069Z,4.20
2023-03-04T10:37:52.423Z,4.20
2023-03-04T10:42:56.066Z,3.70
2023-03-04T10:47:58.562Z,3.90
2023-03-04T10:53:02.628Z,3.90
2023-03-04T10:58:16.782Z,3.60
2023-03-04T11:03:30.158Z,3.90
2023-03-04T11:08:34.394Z,3.80
2023-03-04T11:13:50.810Z,3.90
2023-03-04T11:18:59.169Z,3.80
2023-03-04T11:24:18.800Z,3.90
2023-03-04T11:29:36.134Z,3.60
2023-03-04T11:34:44.086Z,4.20
2023-03-04T11:39:56.645Z,4.50
2023-03-04T11:44:59.401Z,4.30
2023-03-04T11:50:35.057Z,4.10
2023-03-04T11:55:47.384Z,4.10
2023-03-04T12:01:01.694Z,4.10
2023-03-04T12:06:14.701Z,4.00
2023-03-04T12:11:32.599Z,3.80
2023-03-04T12:17:20.385Z,4.00
2023-03-04T12:22:41.691Z,3.90
2023-03-04T12:27:58.086Z,3.60
2023-03-04T12:33:17.252Z,3.70
2023-03-04T12:38:39.456Z,3.70
2023-03-04T12:43:53.711Z,3.30
2023-03-04T12:49:35.453Z,3.20
2023-03-04T12:54:43.368Z,3.10
2023-03-04T12:59:55.209Z,3.30
2023-03-04T13:05:19.401Z,3.20
2023-03-04T13:10:22.969Z,3.30
2023-03-04T13:15:34.850Z,3.40
2023-03-04T13:20:40.217Z,3.10
2023-03-04T13:25:44.873Z,2.90
2023-03-04T13:31:26.343Z,2.90
2023-03-04T13:36:56.025Z,2.70
2023-03-04T13:42:00.053Z,2.50
2023-03-04T13:47:15.390Z,2.50
2023-03-04T13:52:41.286Z,2.60
2023-03-04T13:57:50.857Z,2.60
2023-03-04T14:02:54.755Z,2.90
2023-03-04T14:08:16.674Z,2.90
2023-03-04T14:13:19.330Z,2.80
2023-03-04T14:18:23.949Z,2.70
2023-03-04T14:23:29.492Z,2.70
2023-03-04T14:28:32.000Z,2.80
2023-03-04T14:33:36.730Z,2.50
2023-03-04T14:38:39.501Z,2.50
2023-03-04T14:43:53.941Z,2.40
2023-03-04T14:48:58.554Z,2.30
2023-03-04T14:54:01.219Z,2.40
2023-03-04T14:59:03.832Z,2.50
2023-03-04T15:04:11.253Z,2.40
2023-03-04T15:09:22.392Z,2.30
2023-03-04T15:14:45.923Z,1.90
2023-03-04T15:19:59.450Z,1.40
2023-03-04T15:25:02.601Z,1.50
2023-03-04T15:30:16.848Z,1.40
2023-03-04T15:35:22.196Z,1.30
2023-03-04T15:40:30.468Z,1.40
2023-03-04T15:45:36.085Z,1.50
2023-03-04T15:50:43.441Z,1.10
2023-03-04T15:55:47.109Z,1.20
2023-03-04T16:00:49.844Z,1.10
2023-03-04T16:05:53.896Z,0.90
2023-03-04T16:10:56.313Z,1.10
2023-03-04T16:15:58.790Z,1.30
2023-03-04T16:21:04.395Z,1.30
2023-03-04T16:26:21.033Z,1.10
2023-03-04T16:31:23.870Z,0.90
2023-03-04T16:36:29.597Z,1.00
2023-03-04T16:41:32.395Z,1.00
2023-03-04T16:46:34.999Z,0.90
2023-03-04T16:51:43.442Z,1.00
2023-03-04T16:56:45.945Z,0.80
2023-03-04T17:01:49.681Z,0.50
2023-03-04T17:06:53.595Z,0.70
2023-03-04T17:11:56.722Z,0.70
2023-03-04T17:17:00.533Z,0.60
2023-03-04T17:22:04.520Z,0.80
2023-03-04T17:27:07.121Z,0.80
2023-03-04T17:32:09.710Z,0.80
2023-03-04T17:37:14.815Z,0.60
2023-03-04T17:42:17.947Z,0.30
2023-03-04T17:47:20.462Z,0.10
2023-03-04T17:52:24.435Z,0.10
2023-03-04T17:57:27.055Z,0.30
2023-03-04T18:02:29.852Z,0.40
2023-03-04T18:07:34.172Z,0.50
2023-03-04T18:12:36.902Z,0.60
2023-03-04T18:17:39.460Z,0.60
2023-03-04T18:22:43.753Z,0.60
2023-03-04T18:27:46.360Z,0.60
2023-03-04T18:32:52.278Z,0.60
2023-03-04T18:37:56.662Z,0.60
2023-03-04T18:42:59.443Z,0.50
2023-03-04T18:48:02.696Z,0.50
2023-03-04T18:53:07.112Z,0.40
2023-03-04T18:58:10.194Z,0.50
2023-03-04T19:03:14.146Z,0.50
2023-03-04T19:08:18.611Z,0.30
2023-03-04T19:13:22.471Z,0.30
2023-03-04T19:18:25.678Z,0.40
2023-03-04T19:23:29.502Z,0.30
2023-03-04T19:28:31.929Z,0.40
2023-03-04T19:33:36.738Z,0.40
2023-03-04T19:38:40.986Z,0.40
2023-03-04T19:43:44.116Z,0.30
2023-03-04T19:48:47.041Z,0.30
2023-03-04T19:53:51.458Z,0.30
2023-03-04T19:58:56.352Z,0.30
2023-03-04T20:04:02.808Z,0.20
2023-03-04T20:09:08.912Z,0.20
2023-03-04T20:14:13.281Z,0.20
2023-03-04T20:19:20.034Z,0.10
2023-03-04T20:24:26.262Z,0.20
2023-03-04T20:29:30.056Z,0.10
2023-03-04T20:34:33.983Z,0.10
2023-03-04T20:39:39.424Z,0.10
2023-03-04T20:44:43.910Z,0.10
2023-03-04T20:49:47.952Z,0.00
2023-03-04T20:54:53.110Z,0.00
2023-03-04T20:59:57.062Z,0.00
2023-03-04T21:05:00.981Z,0.00
2023-03-04T21:10:07.526Z,-0.10
2023-03-04T21:15:10.980Z,-0.10
2023-03-04T21:20:15.425Z,-0.10
2023-03-04T21:25:19.807Z,-0.10
2023-03-04T21:30:22.422Z,-0.10
2023-03-04T21:35:25.188Z,-0.10
2023-03-04T21:40:29.131Z,-0.10
2023-03-04T21:45:31.784Z,-0.20
2023-03-04T21:50:34.357Z,-0.20
2023-03-04T21:55:41.938Z,-0.30
2023-03-04T22:00:44.695Z,-0.30
2023-03-04T22:05:48.080Z,-0.30
2023-03-04T22:10:51.948Z,-0.30
2023-03-04T22:15:58.523Z,-0.30
2023-03-04T22:21:03.885Z,-0.50
2023-03-04T22:26:13.031Z,-0.40
2023-03-04T22:31:18.565Z,-0.50
2023-03-04T22:36:21.164Z,-0.50
2023-03-04T22:41:25.694Z,-0.40
2023-03-04T22:46:31.798Z,-0.50
2023-03-04T22:51:34.329Z,-0.60
2023-03-04T22:56:38.296Z,-0.40
2023-03-04T23:01:41.354Z,-0.50
2023-03-04T23:06:43.831Z,-0.50
2023-03-04T23:11:47.730Z,-0.40
2023-03-04T23:16:50.279Z,-0.50
2023-03-04T23:21:52.976Z,-0.50
2023-03-04T23:26:57.140Z,-0.50
2023-03-04T23:31:59.738Z,-0.50
2023-03-04T23:37:02.354Z,-0.50
2023-03-04T23:42:06.668Z,-0.50
2023-03-04T23:47:09.257Z,-0.50
2023-03-04T23:52:11.774Z,-0.50
2023-03-04T23:57:15.679Z,-0.60
